Atlasgracht — PCVX — position and weather

sailwx.info

Track history (hours):
 
Tides and Currents Weather Stations Pressure Air Temp Water Temp Dewpoint Dewpoint Depression Visibility Wind Speed Wind Dir Waves Ship Positions

Atlasgracht

Last reported at 2017-May-25 04:22 UTC. Time now 2017-May-25 17:58 UTC.
Position N 54°04' E 005°08'.

Length 130 m; beam 19 m; draft 9 m.

Type: Cargo ship. MMSI: 244060802.

Date/timePositionNaut miles runAvg speedWind from/ knotsBaromVisibWave heightAir tempDewpointWater temp
2017-May-25 04:22N 54°04' E 005°08'512.9
2017-May-25 03:58N 53°59' E 005°05'712.9
2017-May-25 03:24N 53°52' E 005°02'712.9
2017-May-25 02:53N 53°46' E 004°58'712.8
2017-May-25 02:19N 53°39' E 004°53'412.3
2017-May-25 02:00N 53°36' E 004°50'612.4
2017-May-25 01:30N 53°30' E 004°45'612.2
2017-May-25 01:00N 53°25' E 004°41'612.0
2017-May-25 00:30N 53°19' E 004°38'611.7
2017-May-25 00:00N 53°14' E 004°33'611.7
2017-May-24 23:30N 53°09' E 004°29'611.9
2017-May-24 23:00N 53°04' E 004°24'510.4
2017-May-24 22:30N 52°59' E 004°20'5 9.2
2017-May-24 22:00N 52°55' E 004°17'611.3
2017-May-24 21:30N 52°50' E 004°13'611.5
2017-May-24 21:00N 52°45' E 004°07'611.4
2017-May-24 20:30N 52°42' E 003°60'611.5
2017-May-24 20:00N 52°38' E 003°52'611.3
2017-May-24 19:30N 52°35' E 003°45'610.8
2017-May-24 18:54N 52°29' E 003°39'410.9
2017-May-24 18:30N 52°25' E 003°36'611.0
2017-May-24 18:00N 52°20' E 003°33'611.3
2017-May-24 17:29N 52°14' E 003°30'711.8
2017-May-24 16:52N 52°08' E 003°26'512.2
2017-May-24 16:29N 52°03' E 003°25'612.6
2017-May-24 16:00N 51°57' E 003°23'812.7
2017-May-24 15:20N 51°49' E 003°18'412.6
2017-May-24 15:00N 51°45' E 003°16'611.4
2017-May-24 14:30N 51°40' E 003°19'1313.5
2017-May-24 13:31N 51°28' E 003°31'4 8.9
2017-May-24 13:00N 51°26' E 003°37'4 7.5
2017-May-24 12:31N 51°25' E 003°42'611.6
2017-May-24 12:01N 51°21' E 003°49'1 1.8
2017-May-24 11:31N 51°20' E 003°49'0 0.1
2017-May-24 11:01N 51°20' E 003°49'0 0.8
2017-May-24 10:30N 51°19' E 003°49'1 1.3
2017-May-24 10:00N 51°19' E 003°50'3 6.0
2017-May-24 09:30N 51°16' E 003°50'3 6.7
2017-May-24 09:00N 51°13' E 003°48'2 4.4
2017-May-24 08:31N 51°10' E 003°48'3 6.5
2017-May-24 08:00N 51°07' E 003°46'2 3.4
2017-May-24 07:30N 51°06' E 003°45'0 0.0
2017-May-24 07:00N 51°06' E 003°45'0 0.0
2017-May-24 06:27N 51°06' E 003°45'0 0.0
2017-May-24 05:57N 51°06' E 003°45'0 0.0
2017-May-24 05:30N 51°06' E 003°45'0 0.0
2017-May-24 04:51N 51°06' E 003°45'0 0.0
2017-May-24 04:27N 51°06' E 003°45'0 0.0
2017-May-24 03:57N 51°06' E 003°45'0 0.0
2017-May-24 03:30N 51°06' E 003°45'0 0.0
2017-May-24 02:57N 51°06' E 003°45'0 0.0
2017-May-24 02:30N 51°06' E 003°45'0 0.0
2017-May-24 01:57N 51°06' E 003°45'0 0.0
2017-May-24 01:30N 51°06' E 003°45'0 0.0
2017-May-24 00:57N 51°06' E 003°45'0 0.0
2017-May-24 00:30N 51°06' E 003°45'0 0.0
2017-May-23 23:51N 51°06' E 003°45'0 0.0
2017-May-23 23:30N 51°06' E 003°45'0 0.0
2017-May-23 22:57N 51°06' E 003°45'0 0.0
2017-May-23 22:30N 51°06' E 003°45'0 0.0
2017-May-23 22:00N 51°06' E 003°45'0 0.0
2017-May-23 21:27N 51°06' E 003°45'0 0.0
2017-May-23 20:57N 51°06' E 003°45'0 0.0
2017-May-23 20:21N 51°06' E 003°45'0 0.0
2017-May-23 20:00N 51°06' E 003°45'0 0.0
2017-May-23 19:27N 51°06' E 003°45'0 0.0
2017-May-23 18:57N 51°06' E 003°45'0 0.0
2017-May-23 18:27N 51°06' E 003°45'0 0.0
2017-May-23 18:00N 51°06' E 003°45'0 0.0
2017-May-23 17:21N 51°06' E 003°45'0 0.0
2017-May-23 16:48N 51°06' E 003°45'0 0.0
2017-May-23 16:27N 51°06' E 003°45'0 0.0
2017-May-23 16:00N 51°06' E 003°45'0 0.0
2017-May-23 15:27N 51°06' E 003°45'0 0.0
2017-May-23 14:57N 51°06' E 003°45'0 0.0
2017-May-23 13:57N 51°06' E 003°45'0 0.0
2017-May-23 13:30N 51°06' E 003°45'0 0.0
2017-May-23 12:45N 51°06' E 003°45'0 0.0
2017-May-23 12:30N 51°06' E 003°45'0 0.1
2017-May-23 12:00N 51°06' E 003°45'0 0.1
2017-May-23 11:25N 51°06' E 003°45'0 0.0
2017-May-23 10:55N 51°06' E 003°45'0 0.0
2017-May-23 10:25N 51°06' E 003°45'0 0.0
2017-May-23 09:58N 51°06' E 003°45'0 0.0
2017-May-23 09:25N 51°06' E 003°45'0 0.0
2017-May-23 08:58N 51°06' E 003°45'0 0.0
2017-May-23 08:28N 51°06' E 003°45'0 0.0
2017-May-23 07:55N 51°06' E 003°45'0 0.0
2017-May-23 07:28N 51°06' E 003°45'0 0.0
2017-May-23 06:55N 51°06' E 003°45'0 0.0
2017-May-23 06:25N 51°06' E 003°45'0 0.0
2017-May-23 05:55N 51°06' E 003°45'0 0.0
2017-May-23 05:19N 51°06' E 003°45'0 0.0
2017-May-23 04:58N 51°06' E 003°45'0 0.0
2017-May-23 04:25N 51°06' E 003°45'0 0.0
2017-May-23 03:52N 51°06' E 003°45'0 0.0
2017-May-23 03:28N 51°06' E 003°45'0 0.0
2017-May-23 02:58N 51°06' E 003°45'0 0.0
2017-May-23 02:28N 51°06' E 003°45'0 0.0
2017-May-23 01:58N 51°06' E 003°45'0 0.0
2017-May-23 01:25N 51°06' E 003°45'0 0.0
2017-May-23 00:58N 51°06' E 003°45'0 0.0
2017-May-23 00:22N 51°06' E 003°45'0 0.0
2017-May-22 23:55N 51°06' E 003°45'0 0.0
2017-May-22 23:19N 51°06' E 003°45'0 0.0
2017-May-22 22:58N 51°06' E 003°45'0 0.0
2017-May-22 22:25N 51°06' E 003°45'0 0.0
2017-May-22 21:55N 51°06' E 003°45'0 0.0
2017-May-22 21:28N 51°06' E 003°45'0 0.0
2017-May-22 20:58N 51°06' E 003°45'0 0.0
2017-May-22 20:25N 51°06' E 003°45'0 0.0
2017-May-22 19:55N 51°06' E 003°45'0 0.0
2017-May-22 19:28N 51°06' E 003°45'0 0.0
2017-May-22 18:55N 51°06' E 003°45'0 0.0
2017-May-22 18:28N 51°06' E 003°45'0 0.0
2017-May-22 17:55N 51°06' E 003°45'0 0.0
2017-May-22 17:28N 51°06' E 003°45'0 0.0
2017-May-22 16:55N 51°06' E 003°45'0 0.0
2017-May-22 16:28N 51°06' E 003°45'0 0.0
2017-May-22 15:55N 51°06' E 003°45'0 0.0
2017-May-22 15:28N 51°06' E 003°45'0 0.0
2017-May-22 14:55N 51°06' E 003°45'0 0.0
2017-May-22 13:58N 51°06' E 003°45'0 0.0
2017-May-22 13:25N 51°06' E 003°45'0 0.0
2017-May-22 12:58N 51°06' E 003°45'0 0.0
2017-May-22 12:25N 51°06' E 003°45'0 0.0
2017-May-22 11:58N 51°06' E 003°45'0 0.0
2017-May-22 11:22N 51°06' E 003°45'0 0.0
2017-May-22 10:55N 51°06' E 003°45'0 0.0
2017-May-22 10:25N 51°06' E 003°45'0 0.0
2017-May-22 09:58N 51°06' E 003°45'0 0.0
2017-May-22 09:25N 51°06' E 003°45'0 0.0
2017-May-22 08:58N 51°06' E 003°45'0 0.0
2017-May-22 08:13N 51°06' E 003°45'0 0.0
2017-May-22 07:58N 51°06' E 003°45'0 0.0
2017-May-22 07:25N 51°06' E 003°45'0 0.0
2017-May-22 06:58N 51°06' E 003°45'0 0.0
2017-May-22 06:28N 51°06' E 003°45'0 0.0
2017-May-22 05:58N 51°06' E 003°45'0 0.0
2017-May-22 05:25N 51°06' E 003°45'0 0.0
2017-May-22 04:58N 51°06' E 003°45'0 0.0
2017-May-22 04:25N 51°06' E 003°45'0 0.0
2017-May-22 03:55N 51°06' E 003°45'0 0.0
2017-May-22 03:25N 51°06' E 003°45'0 0.0
2017-May-22 02:58N 51°06' E 003°45'0 0.0
2017-May-22 02:28N 51°06' E 003°45'0 0.0
2017-May-22 01:55N 51°06' E 003°45'0 0.0
2017-May-22 01:25N 51°06' E 003°45'0 0.0
2017-May-22 00:58N 51°06' E 003°45'0 0.0
2017-May-22 00:25N 51°06' E 003°45'0 0.0
2017-May-21 23:58N 51°06' E 003°45'0 0.0
2017-May-21 23:28N 51°06' E 003°45'0 0.0
2017-May-21 22:55N 51°06' E 003°45'0 0.0
2017-May-21 22:25N 51°06' E 003°45'0 0.0
2017-May-21 21:55N 51°06' E 003°45'0 0.0
2017-May-21 21:25N 51°06' E 003°45'0 0.0
2017-May-21 20:58N 51°06' E 003°45'0 0.0
2017-May-21 20:28N 51°06' E 003°45'0 0.0
2017-May-21 19:55N 51°06' E 003°45'0 0.0
2017-May-21 19:28N 51°06' E 003°45'0 0.0
2017-May-21 18:55N 51°06' E 003°45'0 0.0
2017-May-21 18:28N 51°06' E 003°45'0 0.0
2017-May-21 17:55N 51°06' E 003°45'0 0.0
2017-May-21 17:28N 51°06' E 003°45'0 0.0
2017-May-21 16:49N 51°06' E 003°45'0 0.0
2017-May-21 16:19N 51°06' E 003°45'0 0.0
2017-May-21 15:55N 51°06' E 003°45'0 0.0
2017-May-21 15:25N 51°06' E 003°45'0 0.0
2017-May-21 14:55N 51°06' E 003°45'0 0.0
2017-May-21 14:28N 51°06' E 003°45'0 0.0
2017-May-21 13:28N 51°06' E 003°45'0 0.0
2017-May-21 12:55N 51°06' E 003°45'0 0.0
2017-May-21 12:25N 51°06' E 003°45'0 0.0
2017-May-21 11:55N 51°06' E 003°45'0 0.0
2017-May-21 11:25N 51°06' E 003°45'0 0.0
2017-May-21 10:49N 51°06' E 003°45'0 0.0
2017-May-21 10:25N 51°06' E 003°45'0 0.0
2017-May-21 09:58N 51°06' E 003°45'0 0.0
2017-May-21 09:22N 51°06' E 003°45'0 0.0
2017-May-21 08:55N 51°06' E 003°45'0 0.0
2017-May-21 08:25N 51°06' E 003°45'0 0.0
2017-May-21 07:49N 51°06' E 003°45'0 0.0
2017-May-21 07:25N 51°06' E 003°45'0 0.0
2017-May-21 06:55N 51°06' E 003°45'0 0.0
2017-May-21 06:25N 51°06' E 003°45'0 0.0
2017-May-21 05:58N 51°06' E 003°45'0 0.0
2017-May-21 05:25N 51°06' E 003°45'0 0.0
2017-May-21 04:58N 51°06' E 003°45'0 0.0
2017-May-21 04:25N 51°06' E 003°45'0 0.0
2017-May-21 03:55N 51°06' E 003°45'0 0.0
2017-May-21 03:19N 51°06' E 003°45'0 0.0
2017-May-21 02:55N 51°06' E 003°45'0 0.0
2017-May-21 02:25N 51°06' E 003°45'0 0.0
2017-May-21 01:55N 51°06' E 003°45'0 0.0
2017-May-21 01:25N 51°06' E 003°45'0 0.0
2017-May-21 00:58N 51°06' E 003°45'0 0.0
2017-May-21 00:30N 51°06' E 003°45'0 0.5
2017-May-21 00:00N 51°06' E 003°45'2 3.7
2017-May-20 23:30N 51°08' E 003°46'4 7.2
2017-May-20 23:00N 51°11' E 003°48'3 6.7
2017-May-20 22:30N 51°14' E 003°49'4 7.0
2017-May-20 22:01N 51°18' E 003°50'2 4.0
2017-May-20 21:30N 51°20' E 003°49'0 0.3
2017-May-20 21:00N 51°20' E 003°49'0 0.3
2017-May-20 20:30N 51°20' E 003°49'1 1.0
2017-May-20 20:00N 51°20' E 003°49'5 9.6
2017-May-20 19:30N 51°23' E 003°43'611.7
2017-May-20 19:00N 51°25' E 003°34'612.9
2017-May-20 18:30N 51°24' E 003°24'612.9
2017-May-20 18:00N 51°24' E 003°13'612.2
2017-May-20 17:30N 51°24' E 003°03'611.3
2017-May-20 17:00N 51°22' E 002°55'610.6
2017-May-20 16:27N 51°21' E 002°45'5 9.1
2017-May-20 15:54N 51°20' E 002°38'2 4.5
2017-May-20 15:30N 51°20' E 002°35'0 0.0
2017-May-20 15:00N 51°20' E 002°35'0 0.0
2017-May-20 14:00N 51°20' E 002°35'0 0.0
2017-May-20 13:30N 51°20' E 002°35'2 3.8
2017-May-20 12:56N 51°22' E 002°33'4 8.6
2017-May-20 12:30N 51°21' E 002°27'4 8.9
2017-May-20 12:00N 51°20' E 002°21'5 9.4
2017-May-20 11:31N 51°19' E 002°13'510.9
2017-May-20 11:00N 51°21' E 002°05'510.4
2017-May-20 10:30N 51°24' E 001°59'510.1
2017-May-20 10:00N 51°29' E 002°02'510.1
2017-May-20 09:30N 51°33' E 002°08'510.0
2017-May-20 09:00N 51°37' E 002°13'5 9.8
2017-May-20 08:30N 51°40' E 002°18'5 9.6
2017-May-20 07:59N 51°44' E 002°23'4710.9
2017-May-20 03:40N 52°21' E 003°10'212.2
2017-May-20 03:29N 52°23' E 003°13'612.1
2017-May-20 03:00N 52°27' E 003°18'612.1
2017-May-20 02:29N 52°32' E 003°25'612.0
2017-May-20 02:00N 52°37' E 003°31'611.1
2017-May-20 01:30N 52°41' E 003°36'510.4
2017-May-20 01:00N 52°45' E 003°42'612.2
2017-May-20 00:30N 52°50' E 003°48'612.0
2017-May-20 00:00N 52°55' E 003°54'611.3
2017-May-19 23:30N 52°59' E 004°01'5 9.8
2017-May-19 23:00N 53°02' E 004°07'4 8.8
2017-May-19 22:30N 53°05' E 004°12'5 7.7
2017-May-19 21:49N 53°08' E 004°19'73 4.0
2017-May-19 03:30N 53°38' E 006°11'0 0.0
2017-May-19 02:15N 53°38' E 006°11'18 0.6
2017-May-17 22:29N 53°34' E 006°40'510.3
2017-May-17 21:59N 53°31' E 006°47'4 8.3
2017-May-17 21:30N 53°27' E 006°50'0 0.7
2017-May-17 21:00N 53°27' E 006°50'0 0.0
2017-May-17 20:30N 53°27' E 006°50'0 0.0
2017-May-17 20:00N 53°27' E 006°50'0 0.0
2017-May-17 19:30N 53°27' E 006°50'0 0.0
2017-May-17 19:00N 53°27' E 006°50'0 0.5
2017-May-17 18:30N 53°27' E 006°50'1 2.0
2017-May-17 17:59N 53°27' E 006°51'0 0.0
2017-May-17 17:29N 53°27' E 006°51'0 0.0
2017-May-17 08:42N 53°27' E 006°51'0 0.0
2017-May-17 08:31N 53°27' E 006°51'0 0.0
2017-May-17 07:43N 53°27' E 006°51'0 0.0
2017-May-17 07:06N 53°27' E 006°51'0 0.0
2017-May-17 01:25N 53°27' E 006°51'0 0.0
2017-May-16 22:09N 53°27' E 006°51'0 0.0
2017-May-16 21:58N 53°27' E 006°51'0 0.0
2017-May-16 21:31N 53°27' E 006°51'0 0.0
2017-May-16 21:01N 53°27' E 006°51'0 0.0
2017-May-16 20:31N 53°27' E 006°51'0 0.0
2017-May-16 20:00N 53°27' E 006°51'0 0.0
2017-May-16 19:30N 53°27' E 006°51'0 0.0
2017-May-16 19:00N 53°27' E 006°51'0 0.0
2017-May-16 18:30N 53°27' E 006°51'0 0.0
2017-May-16 18:00N 53°27' E 006°51'0 0.0
2017-May-16 17:31N 53°27' E 006°51'0 0.0
2017-May-16 17:00N 53°27' E 006°51'0 0.0
2017-May-16 16:31N 53°27' E 006°51'0 0.0
2017-May-16 16:01N 53°27' E 006°51'0 0.0
2017-May-16 15:30N 53°27' E 006°51'0 0.0
2017-May-16 15:00N 53°27' E 006°51'0 0.0
2017-May-16 14:31N 53°27' E 006°51'0 0.0
2017-May-16 13:31N 53°27' E 006°51'0 0.0
2017-May-16 13:00N 53°27' E 006°51'0 0.0
2017-May-16 12:19N 53°27' E 006°51'0 0.0
2017-May-16 12:01N 53°27' E 006°51'0 0.0
2017-May-16 11:31N 53°27' E 006°51'0 0.0
2017-May-16 11:00N 53°27' E 006°51'0 0.0
2017-May-16 10:31N 53°27' E 006°51'0 0.0
2017-May-16 08:15N 53°27' E 006°51'0 0.0
2017-May-16 07:45N 53°27' E 006°51'0 0.0
2017-May-16 07:21N 53°27' E 006°51'0 0.0
2017-May-16 06:51N 53°27' E 006°51'0 0.0
2017-May-15 22:36N 53°27' E 006°51'0 0.0
2017-May-15 22:25N 53°27' E 006°51'0 0.0
2017-May-15 22:01N 53°27' E 006°51'0 0.0
2017-May-15 21:25N 53°27' E 006°51'0 0.0
2017-May-15 19:54N 53°27' E 006°51'0 0.0
2017-May-15 19:28N 53°27' E 006°51'0 0.0
2017-May-15 18:48N 53°27' E 006°51'0 0.0
2017-May-15 07:04N 53°27' E 006°51'0 0.0
2017-May-15 06:45N 53°27' E 006°51'0 0.0
2017-May-15 06:21N 53°27' E 006°51'  
Track history (hours):
 
Tides and Currents Weather Stations Pressure Air Temp Water Temp Dewpoint Dewpoint Depression Visibility Wind Speed Wind Dir Waves Ship Positions

Atlasgracht

Last reported at 2017-May-25 04:22 UTC. Time now 2017-May-25 17:58 UTC.
Position N 54°04' E 005°08'.

Length 130 m; beam 19 m; draft 9 m.

Type: Cargo ship. MMSI: 244060802.

Date/timePositionNaut miles runAvg speedWind from/ knotsBaromVisibWave heightAir tempDewpointWater temp
2017-May-25 04:22N 54°04' E 005°08'512.9
2017-May-25 03:58N 53°59' E 005°05'712.9
2017-May-25 03:24N 53°52' E 005°02'712.9
2017-May-25 02:53N 53°46' E 004°58'712.8
2017-May-25 02:19N 53°39' E 004°53'412.3
2017-May-25 02:00N 53°36' E 004°50'612.4
2017-May-25 01:30N 53°30' E 004°45'612.2
2017-May-25 01:00N 53°25' E 004°41'612.0
2017-May-25 00:30N 53°19' E 004°38'611.7
2017-May-25 00:00N 53°14' E 004°33'611.7
2017-May-24 23:30N 53°09' E 004°29'611.9
2017-May-24 23:00N 53°04' E 004°24'510.4
2017-May-24 22:30N 52°59' E 004°20'5 9.2
2017-May-24 22:00N 52°55' E 004°17'611.3
2017-May-24 21:30N 52°50' E 004°13'611.5
2017-May-24 21:00N 52°45' E 004°07'611.4
2017-May-24 20:30N 52°42' E 003°60'611.5
2017-May-24 20:00N 52°38' E 003°52'611.3
2017-May-24 19:30N 52°35' E 003°45'610.8
2017-May-24 18:54N 52°29' E 003°39'410.9
2017-May-24 18:30N 52°25' E 003°36'611.0
2017-May-24 18:00N 52°20' E 003°33'611.3
2017-May-24 17:29N 52°14' E 003°30'711.8
2017-May-24 16:52N 52°08' E 003°26'512.2
2017-May-24 16:29N 52°03' E 003°25'612.6
2017-May-24 16:00N 51°57' E 003°23'812.7
2017-May-24 15:20N 51°49' E 003°18'412.6
2017-May-24 15:00N 51°45' E 003°16'611.4
2017-May-24 14:30N 51°40' E 003°19'1313.5
2017-May-24 13:31N 51°28' E 003°31'4 8.9
2017-May-24 13:00N 51°26' E 003°37'4 7.5
2017-May-24 12:31N 51°25' E 003°42'611.6
2017-May-24 12:01N 51°21' E 003°49'1 1.8
2017-May-24 11:31N 51°20' E 003°49'0 0.1
2017-May-24 11:01N 51°20' E 003°49'0 0.8
2017-May-24 10:30N 51°19' E 003°49'1 1.3
2017-May-24 10:00N 51°19' E 003°50'3 6.0
2017-May-24 09:30N 51°16' E 003°50'3 6.7
2017-May-24 09:00N 51°13' E 003°48'2 4.4
2017-May-24 08:31N 51°10' E 003°48'3 6.5
2017-May-24 08:00N 51°07' E 003°46'2 3.4
2017-May-24 07:30N 51°06' E 003°45'0 0.0
2017-May-24 07:00N 51°06' E 003°45'0 0.0
2017-May-24 06:27N 51°06' E 003°45'0 0.0
2017-May-24 05:57N 51°06' E 003°45'0 0.0
2017-May-24 05:30N 51°06' E 003°45'0 0.0
2017-May-24 04:51N 51°06' E 003°45'0 0.0
2017-May-24 04:27N 51°06' E 003°45'0 0.0
2017-May-24 03:57N 51°06' E 003°45'0 0.0
2017-May-24 03:30N 51°06' E 003°45'0 0.0
2017-May-24 02:57N 51°06' E 003°45'0 0.0
2017-May-24 02:30N 51°06' E 003°45'0 0.0
2017-May-24 01:57N 51°06' E 003°45'0 0.0
2017-May-24 01:30N 51°06' E 003°45'0 0.0
2017-May-24 00:57N 51°06' E 003°45'0 0.0
2017-May-24 00:30N 51°06' E 003°45'0 0.0
2017-May-23 23:51N 51°06' E 003°45'0 0.0
2017-May-23 23:30N 51°06' E 003°45'0 0.0
2017-May-23 22:57N 51°06' E 003°45'0 0.0
2017-May-23 22:30N 51°06' E 003°45'0 0.0
2017-May-23 22:00N 51°06' E 003°45'0 0.0
2017-May-23 21:27N 51°06' E 003°45'0 0.0
2017-May-23 20:57N 51°06' E 003°45'0 0.0
2017-May-23 20:21N 51°06' E 003°45'0 0.0
2017-May-23 20:00N 51°06' E 003°45'0 0.0
2017-May-23 19:27N 51°06' E 003°45'0 0.0
2017-May-23 18:57N 51°06' E 003°45'0 0.0
2017-May-23 18:27N 51°06' E 003°45'0 0.0
2017-May-23 18:00N 51°06' E 003°45'0 0.0
2017-May-23 17:21N 51°06' E 003°45'0 0.0
2017-May-23 16:48N 51°06' E 003°45'0 0.0
2017-May-23 16:27N 51°06' E 003°45'0 0.0
2017-May-23 16:00N 51°06' E 003°45'0 0.0
2017-May-23 15:27N 51°06' E 003°45'0 0.0
2017-May-23 14:57N 51°06' E 003°45'0 0.0
2017-May-23 13:57N 51°06' E 003°45'0 0.0
2017-May-23 13:30N 51°06' E 003°45'0 0.0
2017-May-23 12:45N 51°06' E 003°45'0 0.0
2017-May-23 12:30N 51°06' E 003°45'0 0.1
2017-May-23 12:00N 51°06' E 003°45'0 0.1
2017-May-23 11:25N 51°06' E 003°45'0 0.0
2017-May-23 10:55N 51°06' E 003°45'0 0.0
2017-May-23 10:25N 51°06' E 003°45'0 0.0
2017-May-23 09:58N 51°06' E 003°45'0 0.0
2017-May-23 09:25N 51°06' E 003°45'0 0.0
2017-May-23 08:58N 51°06' E 003°45'0 0.0
2017-May-23 08:28N 51°06' E 003°45'0 0.0
2017-May-23 07:55N 51°06' E 003°45'0 0.0
2017-May-23 07:28N 51°06' E 003°45'0 0.0
2017-May-23 06:55N 51°06' E 003°45'0 0.0
2017-May-23 06:25N 51°06' E 003°45'0 0.0
2017-May-23 05:55N 51°06' E 003°45'0 0.0
2017-May-23 05:19N 51°06' E 003°45'0 0.0
2017-May-23 04:58N 51°06' E 003°45'0 0.0
2017-May-23 04:25N 51°06' E 003°45'0 0.0
2017-May-23 03:52N 51°06' E 003°45'0 0.0
2017-May-23 03:28N 51°06' E 003°45'0 0.0
2017-May-23 02:58N 51°06' E 003°45'0 0.0
2017-May-23 02:28N 51°06' E 003°45'0 0.0
2017-May-23 01:58N 51°06' E 003°45'0 0.0
2017-May-23 01:25N 51°06' E 003°45'0 0.0
2017-May-23 00:58N 51°06' E 003°45'0 0.0
2017-May-23 00:22N 51°06' E 003°45'0 0.0
2017-May-22 23:55N 51°06' E 003°45'0 0.0
2017-May-22 23:19N 51°06' E 003°45'0 0.0
2017-May-22 22:58N 51°06' E 003°45'0 0.0
2017-May-22 22:25N 51°06' E 003°45'0 0.0
2017-May-22 21:55N 51°06' E 003°45'0 0.0
2017-May-22 21:28N 51°06' E 003°45'0 0.0
2017-May-22 20:58N 51°06' E 003°45'0 0.0
2017-May-22 20:25N 51°06' E 003°45'0 0.0
2017-May-22 19:55N 51°06' E 003°45'0 0.0
2017-May-22 19:28N 51°06' E 003°45'0 0.0
2017-May-22 18:55N 51°06' E 003°45'0 0.0
2017-May-22 18:28N 51°06' E 003°45'0 0.0
2017-May-22 17:55N 51°06' E 003°45'0 0.0
2017-May-22 17:28N 51°06' E 003°45'0 0.0
2017-May-22 16:55N 51°06' E 003°45'0 0.0
2017-May-22 16:28N 51°06' E 003°45'0 0.0
2017-May-22 15:55N 51°06' E 003°45'0 0.0
2017-May-22 15:28N 51°06' E 003°45'0 0.0
2017-May-22 14:55N 51°06' E 003°45'0 0.0
2017-May-22 13:58N 51°06' E 003°45'0 0.0
2017-May-22 13:25N 51°06' E 003°45'0 0.0
2017-May-22 12:58N 51°06' E 003°45'0 0.0
2017-May-22 12:25N 51°06' E 003°45'0 0.0
2017-May-22 11:58N 51°06' E 003°45'0 0.0
2017-May-22 11:22N 51°06' E 003°45'0 0.0
2017-May-22 10:55N 51°06' E 003°45'0 0.0
2017-May-22 10:25N 51°06' E 003°45'0 0.0
2017-May-22 09:58N 51°06' E 003°45'0 0.0
2017-May-22 09:25N 51°06' E 003°45'0 0.0
2017-May-22 08:58N 51°06' E 003°45'0 0.0
2017-May-22 08:13N 51°06' E 003°45'0 0.0
2017-May-22 07:58N 51°06' E 003°45'0 0.0
2017-May-22 07:25N 51°06' E 003°45'0 0.0
2017-May-22 06:58N 51°06' E 003°45'0 0.0
2017-May-22 06:28N 51°06' E 003°45'0 0.0
2017-May-22 05:58N 51°06' E 003°45'0 0.0
2017-May-22 05:25N 51°06' E 003°45'0 0.0
2017-May-22 04:58N 51°06' E 003°45'0 0.0
2017-May-22 04:25N 51°06' E 003°45'0 0.0
2017-May-22 03:55N 51°06' E 003°45'0 0.0
2017-May-22 03:25N 51°06' E 003°45'0 0.0
2017-May-22 02:58N 51°06' E 003°45'0 0.0
2017-May-22 02:28N 51°06' E 003°45'0 0.0
2017-May-22 01:55N 51°06' E 003°45'0 0.0
2017-May-22 01:25N 51°06' E 003°45'0 0.0
2017-May-22 00:58N 51°06' E 003°45'0 0.0
2017-May-22 00:25N 51°06' E 003°45'0 0.0
2017-May-21 23:58N 51°06' E 003°45'0 0.0
2017-May-21 23:28N 51°06' E 003°45'0 0.0
2017-May-21 22:55N 51°06' E 003°45'0 0.0
2017-May-21 22:25N 51°06' E 003°45'0 0.0
2017-May-21 21:55N 51°06' E 003°45'0 0.0
2017-May-21 21:25N 51°06' E 003°45'0 0.0
2017-May-21 20:58N 51°06' E 003°45'0 0.0
2017-May-21 20:28N 51°06' E 003°45'0 0.0
2017-May-21 19:55N 51°06' E 003°45'0 0.0
2017-May-21 19:28N 51°06' E 003°45'0 0.0
2017-May-21 18:55N 51°06' E 003°45'0 0.0
2017-May-21 18:28N 51°06' E 003°45'0 0.0
2017-May-21 17:55N 51°06' E 003°45'0 0.0
2017-May-21 17:28N 51°06' E 003°45'0 0.0
2017-May-21 16:49N 51°06' E 003°45'0 0.0
2017-May-21 16:19N 51°06' E 003°45'0 0.0
2017-May-21 15:55N 51°06' E 003°45'0 0.0
2017-May-21 15:25N 51°06' E 003°45'0 0.0
2017-May-21 14:55N 51°06' E 003°45'0 0.0
2017-May-21 14:28N 51°06' E 003°45'0 0.0
2017-May-21 13:28N 51°06' E 003°45'0 0.0
2017-May-21 12:55N 51°06' E 003°45'0 0.0
2017-May-21 12:25N 51°06' E 003°45'0 0.0
2017-May-21 11:55N 51°06' E 003°45'0 0.0
2017-May-21 11:25N 51°06' E 003°45'0 0.0
2017-May-21 10:49N 51°06' E 003°45'0 0.0
2017-May-21 10:25N 51°06' E 003°45'0 0.0
2017-May-21 09:58N 51°06' E 003°45'0 0.0
2017-May-21 09:22N 51°06' E 003°45'0 0.0
2017-May-21 08:55N 51°06' E 003°45'0 0.0
2017-May-21 08:25N 51°06' E 003°45'0 0.0
2017-May-21 07:49N 51°06' E 003°45'0 0.0
2017-May-21 07:25N 51°06' E 003°45'0 0.0
2017-May-21 06:55N 51°06' E 003°45'0 0.0
2017-May-21 06:25N 51°06' E 003°45'0 0.0
2017-May-21 05:58N 51°06' E 003°45'0 0.0
2017-May-21 05:25N 51°06' E 003°45'0 0.0
2017-May-21 04:58N 51°06' E 003°45'0 0.0
2017-May-21 04:25N 51°06' E 003°45'0 0.0
2017-May-21 03:55N 51°06' E 003°45'0 0.0
2017-May-21 03:19N 51°06' E 003°45'0 0.0
2017-May-21 02:55N 51°06' E 003°45'0 0.0
2017-May-21 02:25N 51°06' E 003°45'0 0.0
2017-May-21 01:55N 51°06' E 003°45'0 0.0
2017-May-21 01:25N 51°06' E 003°45'0 0.0
2017-May-21 00:58N 51°06' E 003°45'0 0.0
2017-May-21 00:30N 51°06' E 003°45'0 0.5
2017-May-21 00:00N 51°06' E 003°45'2 3.7
2017-May-20 23:30N 51°08' E 003°46'4 7.2
2017-May-20 23:00N 51°11' E 003°48'3 6.7
2017-May-20 22:30N 51°14' E 003°49'4 7.0
2017-May-20 22:01N 51°18' E 003°50'2 4.0
2017-May-20 21:30N 51°20' E 003°49'0 0.3
2017-May-20 21:00N 51°20' E 003°49'0 0.3
2017-May-20 20:30N 51°20' E 003°49'1 1.0
2017-May-20 20:00N 51°20' E 003°49'5 9.6
2017-May-20 19:30N 51°23' E 003°43'611.7
2017-May-20 19:00N 51°25' E 003°34'612.9
2017-May-20 18:30N 51°24' E 003°24'612.9
2017-May-20 18:00N 51°24' E 003°13'612.2
2017-May-20 17:30N 51°24' E 003°03'611.3
2017-May-20 17:00N 51°22' E 002°55'610.6
2017-May-20 16:27N 51°21' E 002°45'5 9.1
2017-May-20 15:54N 51°20' E 002°38'2 4.5
2017-May-20 15:30N 51°20' E 002°35'0 0.0
2017-May-20 15:00N 51°20' E 002°35'0 0.0
2017-May-20 14:00N 51°20' E 002°35'0 0.0
2017-May-20 13:30N 51°20' E 002°35'2 3.8
2017-May-20 12:56N 51°22' E 002°33'4 8.6
2017-May-20 12:30N 51°21' E 002°27'4 8.9
2017-May-20 12:00N 51°20' E 002°21'5 9.4
2017-May-20 11:31N 51°19' E 002°13'510.9
2017-May-20 11:00N 51°21' E 002°05'510.4
2017-May-20 10:30N 51°24' E 001°59'510.1
2017-May-20 10:00N 51°29' E 002°02'510.1
2017-May-20 09:30N 51°33' E 002°08'510.0
2017-May-20 09:00N 51°37' E 002°13'5 9.8
2017-May-20 08:30N 51°40' E 002°18'5 9.6
2017-May-20 07:59N 51°44' E 002°23'4710.9
2017-May-20 03:40N 52°21' E 003°10'212.2
2017-May-20 03:29N 52°23' E 003°13'612.1
2017-May-20 03:00N 52°27' E 003°18'612.1
2017-May-20 02:29N 52°32' E 003°25'612.0
2017-May-20 02:00N 52°37' E 003°31'611.1
2017-May-20 01:30N 52°41' E 003°36'510.4
2017-May-20 01:00N 52°45' E 003°42'612.2
2017-May-20 00:30N 52°50' E 003°48'612.0
2017-May-20 00:00N 52°55' E 003°54'611.3
2017-May-19 23:30N 52°59' E 004°01'5 9.8
2017-May-19 23:00N 53°02' E 004°07'4 8.8
2017-May-19 22:30N 53°05' E 004°12'5 7.7
2017-May-19 21:49N 53°08' E 004°19'73 4.0
2017-May-19 03:30N 53°38' E 006°11'0 0.0
2017-May-19 02:15N 53°38' E 006°11'18 0.6
2017-May-17 22:29N 53°34' E 006°40'510.3
2017-May-17 21:59N 53°31' E 006°47'4 8.3
2017-May-17 21:30N 53°27' E 006°50'0 0.7
2017-May-17 21:00N 53°27' E 006°50'0 0.0
2017-May-17 20:30N 53°27' E 006°50'0 0.0
2017-May-17 20:00N 53°27' E 006°50'0 0.0
2017-May-17 19:30N 53°27' E 006°50'0 0.0
2017-May-17 19:00N 53°27' E 006°50'0 0.5
2017-May-17 18:30N 53°27' E 006°50'1 2.0
2017-May-17 17:59N 53°27' E 006°51'0 0.0
2017-May-17 17:29N 53°27' E 006°51'0 0.0
2017-May-17 08:42N 53°27' E 006°51'0 0.0
2017-May-17 08:31N 53°27' E 006°51'0 0.0
2017-May-17 07:43N 53°27' E 006°51'0 0.0
2017-May-17 07:06N 53°27' E 006°51'0 0.0
2017-May-17 01:25N 53°27' E 006°51'0 0.0
2017-May-16 22:09N 53°27' E 006°51'0 0.0
2017-May-16 21:58N 53°27' E 006°51'0 0.0
2017-May-16 21:31N 53°27' E 006°51'0 0.0
2017-May-16 21:01N 53°27' E 006°51'0 0.0
2017-May-16 20:31N 53°27' E 006°51'0 0.0
2017-May-16 20:00N 53°27' E 006°51'0 0.0
2017-May-16 19:30N 53°27' E 006°51'0 0.0
2017-May-16 19:00N 53°27' E 006°51'0 0.0
2017-May-16 18:30N 53°27' E 006°51'0 0.0
2017-May-16 18:00N 53°27' E 006°51'0 0.0
2017-May-16 17:31N 53°27' E 006°51'0 0.0
2017-May-16 17:00N 53°27' E 006°51'0 0.0
2017-May-16 16:31N 53°27' E 006°51'0 0.0
2017-May-16 16:01N 53°27' E 006°51'0 0.0
2017-May-16 15:30N 53°27' E 006°51'0 0.0
2017-May-16 15:00N 53°27' E 006°51'0 0.0
2017-May-16 14:31N 53°27' E 006°51'0 0.0
2017-May-16 13:31N 53°27' E 006°51'0 0.0
2017-May-16 13:00N 53°27' E 006°51'0 0.0
2017-May-16 12:19N 53°27' E 006°51'0 0.0
2017-May-16 12:01N 53°27' E 006°51'0 0.0
2017-May-16 11:31N 53°27' E 006°51'0 0.0
2017-May-16 11:00N 53°27' E 006°51'0 0.0
2017-May-16 10:31N 53°27' E 006°51'0 0.0
2017-May-16 08:15N 53°27' E 006°51'0 0.0
2017-May-16 07:45N 53°27' E 006°51'0 0.0
2017-May-16 07:21N 53°27' E 006°51'0 0.0
2017-May-16 06:51N 53°27' E 006°51'0 0.0
2017-May-15 22:36N 53°27' E 006°51'0 0.0
2017-May-15 22:25N 53°27' E 006°51'0 0.0
2017-May-15 22:01N 53°27' E 006°51'0 0.0
2017-May-15 21:25N 53°27' E 006°51'0 0.0
2017-May-15 19:54N 53°27' E 006°51'0 0.0
2017-May-15 19:28N 53°27' E 006°51'0 0.0
2017-May-15 18:48N 53°27' E 006°51'0 0.0
2017-May-15 07:04N 53°27' E 006°51'0 0.0
2017-May-15 06:45N 53°27' E 006°51'0 0.0
2017-May-15 06:21N 53°27' E 006°51'  

Dump ship's entire track history